createdAt,value
2017-09-20T00:00:44.171Z,99.0
2017-09-20T00:01:45.667Z,99.6
2017-09-20T00:02:47.358Z,99.2
2017-09-20T00:03:48.790Z,99.5
2017-09-20T00:04:50.473Z,99.1
2017-09-20T00:05:51.977Z,99.4
2017-09-20T00:06:53.611Z,99.4
2017-09-20T00:07:55.050Z,99.7
2017-09-20T00:08:56.711Z,99.8
2017-09-20T00:09:58.200Z,99.6
2017-09-20T00:10:59.888Z,99.3
2017-09-20T00:12:01.332Z,100.0
2017-09-20T00:13:03.006Z,99.7
2017-09-20T00:14:04.481Z,100.0
2017-09-20T00:15:06.155Z,99.7
2017-09-20T00:16:07.637Z,99.4
2017-09-20T00:17:09.347Z,99.6
2017-09-20T00:18:10.817Z,99.7
2017-09-20T00:19:12.503Z,99.4
2017-09-20T00:20:13.964Z,99.5
2017-09-20T00:21:15.643Z,99.4
2017-09-20T00:22:17.125Z,98.8
2017-09-20T00:23:18.809Z,100.0
2017-09-20T00:24:20.293Z,99.7
2017-09-20T00:25:21.878Z,100.0
2017-09-20T00:26:23.338Z,99.7
2017-09-20T00:27:26.001Z,99.3
2017-09-20T00:28:27.473Z,99.7
2017-09-20T00:29:29.138Z,100.0
2017-09-20T00:30:30.605Z,100.0
2017-09-20T00:31:32.288Z,99.9
2017-09-20T00:32:33.776Z,100.0
2017-09-20T00:33:35.487Z,100.0
2017-09-20T00:34:36.964Z,99.7
2017-09-20T00:35:38.741Z,100.0
2017-09-20T00:36:40.241Z,99.9
2017-09-20T00:37:41.726Z,99.9
2017-09-20T00:38:43.162Z,100.0
2017-09-20T00:39:44.841Z,99.3
2017-09-20T00:40:46.352Z,99.3
2017-09-20T00:41:48.003Z,99.7
2017-09-20T00:42:49.494Z,100.0
2017-09-20T00:43:51.237Z,99.7
2017-09-20T00:44:52.779Z,99.8
2017-09-20T00:45:54.375Z,100.0
2017-09-20T00:46:55.813Z,99.6
2017-09-20T00:47:57.525Z,99.4
2017-09-20T00:48:59.064Z,99.5
2017-09-20T00:50:00.840Z,99.4
2017-09-20T00:51:02.308Z,99.4
2017-09-20T00:52:03.935Z,99.4
2017-09-20T00:53:05.395Z,99.7
2017-09-20T00:54:07.008Z,100.0
2017-09-20T00:55:08.501Z,100.0
2017-09-20T00:56:10.040Z,100.0
2017-09-20T00:57:11.473Z,100.0
2017-09-20T00:58:12.996Z,99.6
2017-09-20T00:59:14.414Z,100.0
2017-09-20T01:00:16.067Z,100.0
2017-09-20T01:01:17.525Z,99.8
2017-09-20T01:02:19.199Z,100.0
2017-09-20T01:03:20.752Z,99.9
2017-09-20T01:04:22.465Z,100.0
2017-09-20T01:05:24.014Z,100.0
2017-09-20T01:06:25.672Z,99.8
2017-09-20T01:07:27.197Z,99.9
2017-09-20T01:08:28.839Z,100.0
2017-09-20T01:09:30.331Z,100.0
2017-09-20T01:10:32.036Z,100.0
2017-09-20T01:11:33.541Z,100.0
2017-09-20T01:12:35.202Z,99.4
2017-09-20T01:13:36.688Z,99.9
2017-09-20T01:14:38.391Z,100.0
2017-09-20T01:15:39.873Z,100.0
2017-09-20T01:16:41.561Z,100.0
2017-09-20T01:17:43.068Z,99.7
2017-09-20T01:18:44.765Z,99.7
2017-09-20T01:19:46.251Z,99.6
2017-09-20T01:20:47.956Z,99.6
2017-09-20T01:21:49.439Z,99.4
2017-09-20T01:22:51.158Z,99.2
2017-09-20T01:23:52.645Z,99.3
2017-09-20T01:24:54.417Z,99.2
2017-09-20T01:25:55.900Z,98.8
2017-09-20T01:26:57.522Z,99.2
2017-09-20T01:27:58.989Z,99.1
2017-09-20T01:29:00.630Z,98.8
2017-09-20T01:30:02.147Z,99.0
2017-09-20T01:31:03.791Z,99.0
2017-09-20T01:32:05.331Z,99.1
2017-09-20T01:33:07.006Z,99.4
2017-09-20T01:34:08.527Z,99.7
2017-09-20T01:35:10.201Z,99.2
2017-09-20T01:36:11.710Z,99.5
2017-09-20T01:37:13.395Z,99.2
2017-09-20T01:38:14.885Z,99.4
2017-09-20T01:39:16.539Z,99.0
2017-09-20T01:40:17.987Z,98.6
2017-09-20T01:41:19.742Z,99.5
2017-09-20T01:42:21.229Z,99.2
2017-09-20T01:43:22.909Z,99.1
2017-09-20T01:44:24.402Z,99.4
2017-09-20T01:45:26.165Z,99.0
2017-09-20T01:46:27.640Z,99.6
2017-09-20T01:47:29.418Z,99.8
2017-09-20T01:48:30.934Z,99.5
2017-09-20T01:49:32.616Z,98.6
2017-09-20T01:50:34.114Z,99.0
2017-09-20T01:51:35.753Z,98.7
2017-09-20T01:52:37.233Z,99.0
2017-09-20T01:53:38.858Z,99.0
2017-09-20T01:54:40.384Z,98.8
2017-09-20T01:55:42.077Z,98.9
2017-09-20T01:56:43.567Z,98.9
2017-09-20T01:57:45.136Z,99.2
2017-09-20T01:58:46.623Z,99.6
2017-09-20T01:59:48.316Z,99.6
2017-09-20T02:00:49.815Z,99.0
2017-09-20T02:01:52.519Z,98.8
2017-09-20T02:02:53.978Z,99.6
2017-09-20T02:03:55.600Z,99.4
2017-09-20T02:04:57.082Z,99.8
2017-09-20T02:05:58.650Z,99.6
2017-09-20T02:07:00.149Z,99.6
2017-09-20T02:08:01.775Z,99.4
2017-09-20T02:09:03.277Z,98.9
2017-09-20T02:10:05.895Z,98.7
2017-09-20T02:11:07.374Z,98.6
2017-09-20T02:12:09.043Z,99.5
2017-09-20T02:13:10.594Z,100.0
2017-09-20T02:14:13.307Z,99.0
2017-09-20T02:15:14.761Z,99.6
2017-09-20T02:16:16.418Z,99.6
2017-09-20T02:17:17.894Z,99.3
2017-09-20T02:18:19.584Z,99.7
2017-09-20T02:19:21.126Z,98.9
2017-09-20T02:20:22.747Z,99.3
2017-09-20T02:21:24.218Z,99.4
2017-09-20T02:22:25.933Z,99.6
2017-09-20T02:23:27.408Z,99.4
2017-09-20T02:24:29.097Z,98.9
2017-09-20T02:25:30.581Z,98.7
2017-09-20T02:26:32.204Z,98.6
2017-09-20T02:27:33.700Z,99.4
2017-09-20T02:28:35.402Z,99.4
2017-09-20T02:29:36.863Z,99.6
2017-09-20T02:30:38.488Z,99.8
2017-09-20T02:31:40.009Z,99.4
2017-09-20T02:32:41.669Z,99.7
2017-09-20T02:33:43.172Z,99.6
2017-09-20T02:34:44.846Z,99.7
2017-09-20T02:35:46.364Z,99.4
2017-09-20T02:36:48.050Z,99.3
2017-09-20T02:37:49.569Z,99.4
2017-09-20T02:38:51.291Z,99.8
2017-09-20T02:39:52.800Z,99.4
2017-09-20T02:40:54.406Z,100.0
2017-09-20T02:41:55.884Z,99.8
2017-09-20T02:42:57.497Z,99.4
2017-09-20T02:43:58.935Z,99.8
2017-09-20T02:45:00.580Z,99.6
2017-09-20T02:46:02.038Z,99.8
2017-09-20T02:47:03.646Z,99.4
2017-09-20T02:48:05.114Z,100.0
2017-09-20T02:49:06.744Z,99.9
2017-09-20T02:50:08.239Z,99.9
2017-09-20T02:51:09.923Z,100.0
2017-09-20T02:52:11.402Z,99.9
2017-09-20T02:53:13.018Z,99.9
2017-09-20T02:54:14.469Z,100.0
2017-09-20T02:55:16.076Z,99.7
2017-09-20T02:56:17.550Z,100.0
2017-09-20T02:57:19.193Z,100.0
2017-09-20T02:58:20.673Z,100.0
2017-09-20T02:59:22.274Z,100.0
2017-09-20T03:00:23.751Z,100.0
2017-09-20T03:01:25.250Z,100.0
2017-09-20T03:02:26.728Z,99.8
2017-09-20T03:03:28.392Z,99.9
2017-09-20T03:04:29.874Z,100.0
2017-09-20T03:05:31.586Z,99.5
2017-09-20T03:06:33.034Z,99.7
2017-09-20T03:07:34.759Z,100.0
2017-09-20T03:08:36.256Z,99.8
2017-09-20T03:09:37.902Z,99.7
2017-09-20T03:10:39.376Z,99.9
2017-09-20T03:11:40.955Z,99.8
2017-09-20T03:12:42.470Z,99.9
2017-09-20T03:13:44.034Z,100.0
2017-09-20T03:14:45.560Z,100.0
2017-09-20T03:15:47.272Z,100.0
2017-09-20T03:16:48.764Z,100.0
2017-09-20T03:17:50.453Z,100.0
2017-09-20T03:18:51.927Z,99.9
2017-09-20T03:19:53.531Z,100.0
2017-09-20T03:20:55.040Z,99.9
2017-09-20T03:21:56.715Z,100.0
2017-09-20T03:22:58.213Z,99.7
2017-09-20T03:23:59.913Z,100.0
2017-09-20T03:25:01.386Z,100.0
2017-09-20T03:26:03.028Z,99.7
2017-09-20T03:27:04.477Z,99.3
2017-09-20T03:28:06.074Z,99.8
2017-09-20T03:29:07.519Z,99.9
2017-09-20T03:30:09.187Z,100.0
2017-09-20T03:31:10.684Z,100.0
2017-09-20T03:32:12.303Z,100.0
2017-09-20T03:33:13.788Z,100.0
2017-09-20T03:34:15.458Z,100.0
2017-09-20T03:35:16.947Z,99.9
2017-09-20T03:36:18.630Z,100.0
2017-09-20T03:37:20.163Z,99.7
2017-09-20T03:38:21.809Z,99.4
2017-09-20T03:39:23.264Z,99.7
2017-09-20T03:40:24.931Z,100.0
2017-09-20T03:41:26.410Z,99.8
2017-09-20T03:42:28.073Z,100.0
2017-09-20T03:43:29.545Z,100.0
2017-09-20T03:44:31.184Z,100.0
2017-09-20T03:45:32.631Z,100.0
2017-09-20T03:46:34.319Z,100.0
2017-09-20T03:47:35.965Z,100.0
2017-09-20T03:48:37.819Z,100.0
2017-09-20T03:49:39.379Z,100.0
2017-09-20T03:50:41.080Z,100.0
2017-09-20T03:51:42.595Z,100.0
2017-09-20T03:52:44.225Z,100.0
2017-09-20T03:53:45.786Z,100.0
2017-09-20T03:54:48.453Z,100.0
2017-09-20T03:55:50.030Z,100.0
2017-09-20T03:56:51.807Z,100.0
2017-09-20T03:57:53.322Z,100.0
2017-09-20T03:58:55.079Z,100.0
2017-09-20T03:59:56.567Z,100.0
2017-09-20T04:00:58.204Z,100.0
2017-09-20T04:01:59.681Z,100.0
2017-09-20T04:03:01.302Z,100.0
2017-09-20T04:04:02.865Z,100.0
2017-09-20T04:05:04.474Z,100.0
2017-09-20T04:06:05.976Z,100.0
2017-09-20T04:07:09.680Z,100.0
2017-09-20T04:08:11.200Z,100.0
2017-09-20T04:09:12.952Z,100.0
2017-09-20T04:10:14.452Z,100.0
2017-09-20T04:11:16.097Z,100.0
2017-09-20T04:12:17.674Z,100.0
2017-09-20T04:13:19.377Z,100.0
2017-09-20T04:14:20.934Z,100.0
2017-09-20T04:15:22.579Z,100.0
2017-09-20T04:16:24.212Z,100.0
2017-09-20T04:17:26.036Z,100.0
2017-09-20T04:18:27.589Z,100.0
2017-09-20T04:19:29.260Z,100.0
2017-09-20T04:20:30.817Z,100.0
2017-09-20T04:21:32.436Z,100.0
2017-09-20T04:22:33.954Z,100.0
2017-09-20T04:23:35.609Z,100.0
2017-09-20T04:24:37.090Z,100.0
2017-09-20T04:25:38.724Z,100.0
2017-09-20T04:26:40.212Z,100.0
2017-09-20T04:27:41.710Z,100.0
2017-09-20T04:28:43.270Z,100.0
2017-09-20T04:29:44.885Z,100.0
2017-09-20T04:30:46.372Z,100.0
2017-09-20T04:31:48.133Z,100.0
2017-09-20T04:32:49.738Z,100.0
2017-09-20T04:33:51.394Z,100.0
2017-09-20T04:34:53.010Z,100.0
2017-09-20T04:35:54.638Z,100.0
2017-09-20T04:36:56.229Z,100.0
2017-09-20T04:37:58.843Z,100.0
2017-09-20T04:39:00.293Z,100.0
2017-09-20T04:40:01.933Z,100.0
2017-09-20T04:41:03.482Z,100.0
2017-09-20T04:42:05.121Z,100.0
2017-09-20T04:43:06.546Z,100.0
2017-09-20T04:44:08.214Z,100.0
2017-09-20T04:45:09.783Z,100.0
2017-09-20T04:46:11.460Z,100.0
2017-09-20T04:47:12.918Z,100.0
2017-09-20T04:48:14.586Z,100.0
2017-09-20T04:49:16.221Z,100.0
2017-09-20T04:50:18.110Z,100.0
2017-09-20T04:51:19.837Z,100.0
2017-09-20T04:52:21.641Z,100.0
2017-09-20T04:53:23.220Z,100.0
2017-09-20T04:54:24.971Z,100.0
2017-09-20T04:55:26.588Z,100.0
2017-09-20T04:56:28.448Z,100.0
2017-09-20T04:57:29.997Z,100.0
2017-09-20T04:58:31.780Z,100.0
2017-09-20T04:59:33.437Z,100.0
2017-09-20T05:00:35.117Z,100.0
2017-09-20T05:01:36.750Z,100.0
2017-09-20T05:02:38.566Z,100.0
2017-09-20T05:03:40.193Z,100.0
2017-09-20T05:04:41.957Z,100.0
2017-09-20T05:05:43.551Z,100.0
2017-09-20T05:06:45.283Z,100.0
2017-09-20T05:07:46.924Z,100.0
2017-09-20T05:08:48.683Z,100.0
2017-09-20T05:09:50.334Z,100.0
2017-09-20T05:10:52.210Z,100.0
2017-09-20T05:11:53.855Z,100.0
2017-09-20T05:12:55.609Z,100.0
2017-09-20T05:13:57.275Z,100.0
2017-09-20T05:14:58.991Z,100.0
2017-09-20T05:16:00.567Z,100.0
2017-09-20T05:17:02.267Z,100.0
2017-09-20T05:18:04.011Z,100.0
2017-09-20T05:19:05.802Z,100.0
2017-09-20T05:20:07.530Z,100.0
2017-09-20T05:21:09.292Z,100.0
2017-09-20T05:22:10.874Z,100.0
2017-09-20T05:23:12.700Z,100.0
2017-09-20T05:24:14.368Z,100.0
2017-09-20T05:25:16.096Z,100.0
2017-09-20T05:26:17.648Z,100.0
2017-09-20T05:27:19.306Z,100.0
2017-09-20T05:28:20.895Z,100.0
2017-09-20T05:29:22.439Z,100.0
2017-09-20T05:30:23.997Z,100.0
2017-09-20T05:31:25.529Z,100.0
2017-09-20T05:32:27.002Z,100.0
2017-09-20T05:33:28.671Z,100.0
2017-09-20T05:34:30.208Z,100.0
2017-09-20T05:35:31.825Z,100.0
2017-09-20T05:36:33.376Z,100.0
2017-09-20T05:37:35.009Z,100.0
2017-09-20T05:38:36.552Z,100.0
2017-09-20T05:39:38.024Z,100.0
2017-09-20T05:40:39.550Z,100.0
2017-09-20T05:41:41.239Z,100.0
2017-09-20T05:42:42.800Z,100.0
2017-09-20T05:43:44.353Z,100.0
2017-09-20T05:44:45.825Z,100.0
2017-09-20T05:45:47.424Z,100.0
2017-09-20T05:46:48.930Z,100.0
2017-09-20T05:47:50.575Z,100.0
2017-09-20T05:48:52.141Z,100.0
2017-09-20T05:49:53.754Z,100.0
2017-09-20T05:50:55.357Z,100.0
2017-09-20T05:51:57.999Z,100.0
2017-09-20T05:52:59.491Z,100.0
2017-09-20T05:54:01.003Z,100.0
2017-09-20T05:55:02.527Z,100.0
2017-09-20T05:56:04.162Z,100.0
2017-09-20T05:57:05.897Z,100.0
2017-09-20T05:58:07.566Z,100.0
2017-09-20T05:59:09.092Z,100.0
2017-09-20T06:00:10.662Z,100.0
2017-09-20T06:01:12.217Z,100.0
2017-09-20T06:02:13.758Z,100.0
2017-09-20T06:03:15.248Z,100.0
2017-09-20T06:04:16.833Z,100.0
2017-09-20T06:05:18.313Z,100.0
2017-09-20T06:06:19.932Z,100.0
2017-09-20T06:07:21.494Z,100.0
2017-09-20T06:08:23.021Z,100.0
2017-09-20T06:09:24.537Z,100.0
2017-09-20T06:10:26.101Z,100.0
2017-09-20T06:11:27.635Z,100.0
2017-09-20T06:12:30.215Z,100.0
2017-09-20T06:13:31.713Z,100.0
2017-09-20T06:14:33.281Z,100.0
2017-09-20T06:15:34.783Z,100.0
2017-09-20T06:16:36.485Z,100.0
2017-09-20T06:17:37.996Z,100.0
2017-09-20T06:18:39.577Z,100.0
2017-09-20T06:19:41.086Z,100.0
2017-09-20T06:20:42.665Z,100.0
2017-09-20T06:21:44.310Z,100.0
2017-09-20T06:22:45.892Z,100.0
2017-09-20T06:23:47.549Z,100.0
2017-09-20T06:24:50.230Z,100.0
2017-09-20T06:25:51.763Z,100.0
2017-09-20T06:26:53.365Z,100.0
2017-09-20T06:27:54.869Z,100.0
2017-09-20T06:28:58.445Z,100.0
2017-09-20T06:29:59.987Z,100.0
2017-09-20T06:31:01.561Z,100.0
2017-09-20T06:32:03.177Z,100.0
2017-09-20T06:33:05.776Z,100.0
2017-09-20T06:34:07.271Z,100.0
2017-09-20T06:35:08.965Z,100.0
2017-09-20T06:36:10.486Z,100.0
2017-09-20T06:37:12.079Z,100.0
2017-09-20T06:38:13.631Z,100.0
2017-09-20T06:39:15.257Z,100.0
2017-09-20T06:40:16.874Z,100.0
2017-09-20T06:41:18.441Z,100.0
2017-09-20T06:42:20.150Z,100.0
2017-09-20T06:43:22.696Z,100.0
2017-09-20T06:44:24.178Z,100.0
2017-09-20T06:45:25.681Z,99.8
2017-09-20T06:46:27.210Z,100.0
2017-09-20T06:47:28.851Z,99.8
2017-09-20T06:48:30.378Z,100.0
2017-09-20T06:49:31.974Z,100.0
2017-09-20T06:50:33.534Z,99.9
2017-09-20T06:51:35.065Z,100.0
2017-09-20T06:52:36.611Z,99.9
2017-09-20T06:53:38.161Z,99.9
2017-09-20T06:54:39.701Z,100.0
2017-09-20T06:55:41.248Z,100.0
2017-09-20T06:56:42.784Z,100.0
2017-09-20T06:57:44.344Z,100.0
2017-09-20T06:58:45.845Z,99.7
2017-09-20T06:59:47.451Z,99.6
2017-09-20T07:00:48.979Z,99.4
2017-09-20T07:01:50.732Z,99.6
2017-09-20T07:02:52.355Z,99.4
2017-09-20T07:03:53.869Z,98.9
2017-09-20T07:04:55.357Z,98.7
2017-09-20T07:05:56.946Z,99.7
2017-09-20T07:06:58.532Z,98.7
2017-09-20T07:08:00.070Z,98.5
2017-09-20T07:09:01.588Z,98.5
2017-09-20T07:10:03.157Z,98.8
2017-09-20T07:11:04.681Z,98.8
2017-09-20T07:12:06.254Z,98.9
2017-09-20T07:13:07.707Z,98.7
2017-09-20T07:14:09.305Z,98.8
2017-09-20T07:15:10.837Z,98.7
2017-09-20T07:16:12.381Z,98.6
2017-09-20T07:17:14.028Z,98.6
2017-09-20T07:18:15.557Z,98.5
2017-09-20T07:19:17.076Z,97.8
2017-09-20T07:20:18.668Z,97.5
2017-09-20T07:21:20.189Z,97.7
2017-09-20T07:22:21.749Z,97.9
2017-09-20T07:23:23.218Z,97.9
2017-09-20T07:24:24.749Z,97.6
2017-09-20T07:25:26.285Z,97.6
2017-09-20T07:26:27.839Z,97.7
2017-09-20T07:27:29.384Z,97.9
2017-09-20T07:28:31.034Z,98.0
2017-09-20T07:29:32.562Z,97.0
2017-09-20T07:30:34.128Z,97.0
2017-09-20T07:31:35.602Z,96.2
2017-09-20T07:32:37.155Z,96.8
2017-09-20T07:33:38.678Z,96.3
2017-09-20T07:34:40.246Z,97.0
2017-09-20T07:35:41.835Z,97.1
2017-09-20T07:36:43.402Z,97.3
2017-09-20T07:37:44.989Z,97.1
2017-09-20T07:38:46.535Z,96.8
2017-09-20T07:39:48.057Z,96.8
2017-09-20T07:40:49.635Z,97.1
2017-09-20T07:41:51.143Z,97.0
2017-09-20T07:42:52.753Z,97.2
2017-09-20T07:43:54.268Z,96.3
2017-09-20T07:44:55.927Z,96.5
2017-09-20T07:45:57.407Z,97.5
2017-09-20T07:46:58.998Z,96.0
2017-09-20T07:48:00.530Z,95.9
2017-09-20T07:49:02.060Z,96.6
2017-09-20T07:50:03.533Z,96.6
2017-09-20T07:51:05.180Z,96.3
2017-09-20T07:52:06.677Z,95.6
2017-09-20T07:53:09.292Z,96.1
2017-09-20T07:54:10.820Z,96.2
2017-09-20T07:55:12.339Z,95.6
2017-09-20T07:56:13.810Z,95.5
2017-09-20T07:57:15.352Z,96.1
2017-09-20T07:58:17.290Z,95.7
2017-09-20T07:59:18.812Z,96.0
2017-09-20T08:00:20.464Z,96.5
2017-09-20T08:01:22.012Z,96.3
2017-09-20T08:02:23.562Z,95.6
2017-09-20T08:03:25.049Z,94.6
2017-09-20T08:04:26.687Z,95.7
2017-09-20T08:05:28.195Z,95.2
2017-09-20T08:06:29.718Z,94.9
2017-09-20T08:07:31.263Z,95.1
2017-09-20T08:08:32.775Z,94.8
2017-09-20T08:09:34.324Z,94.6
2017-09-20T08:10:35.869Z,93.9
2017-09-20T08:11:37.366Z,94.3
2017-09-20T08:12:38.971Z,93.8
2017-09-20T08:13:40.548Z,94.0
2017-09-20T08:14:42.153Z,94.3
2017-09-20T08:15:43.695Z,93.8
2017-09-20T08:16:45.213Z,94.1
2017-09-20T08:17:46.881Z,93.5
2017-09-20T08:18:48.470Z,93.6
2017-09-20T08:19:50.025Z,93.0
2017-09-20T08:20:51.780Z,92.5
2017-09-20T08:21:53.246Z,93.2
2017-09-20T08:22:54.802Z,92.4
2017-09-20T08:23:56.289Z,92.2
2017-09-20T08:24:57.889Z,92.1
2017-09-20T08:25:59.450Z,92.4
2017-09-20T08:27:00.995Z,92.2
2017-09-20T08:28:02.525Z,91.7
2017-09-20T08:29:04.039Z,92.3
2017-09-20T08:30:05.551Z,90.9
2017-09-20T08:31:07.143Z,90.4
2017-09-20T08:32:09.308Z,91.5
2017-09-20T08:33:11.073Z,91.2
2017-09-20T08:34:12.632Z,91.2
2017-09-20T08:35:14.290Z,90.9
2017-09-20T08:36:15.809Z,90.4
2017-09-20T08:37:17.429Z,90.8
2017-09-20T08:38:18.944Z,91.2
2017-09-20T08:39:20.564Z,91.1
2017-09-20T08:40:22.124Z,90.8
2017-09-20T08:41:23.772Z,90.4
2017-09-20T08:42:25.266Z,90.7
2017-09-20T08:43:26.894Z,90.5
2017-09-20T08:44:28.457Z,90.9
2017-09-20T08:45:30.029Z,90.8
2017-09-20T08:46:31.534Z,91.3
2017-09-20T08:47:33.057Z,89.9
2017-09-20T08:48:34.565Z,90.6
2017-09-20T08:49:36.196Z,91.5
2017-09-20T08:50:37.759Z,91.1
2017-09-20T08:51:39.356Z,90.9
2017-09-20T08:52:41.537Z,91.4
2017-09-20T08:53:44.625Z,91.1
2017-09-20T08:54:46.146Z,91.4
2017-09-20T08:55:47.785Z,90.7
2017-09-20T08:56:49.334Z,90.2
2017-09-20T08:57:50.956Z,90.3
2017-09-20T08:58:52.484Z,90.1
2017-09-20T08:59:54.041Z,89.8
2017-09-20T09:00:55.575Z,90.2
2017-09-20T09:01:57.121Z,89.6
2017-09-20T09:02:58.640Z,90.5
2017-09-20T09:04:00.195Z,90.4
2017-09-20T09:05:01.833Z,90.2
2017-09-20T09:06:03.411Z,90.6
2017-09-20T09:07:04.931Z,89.5
2017-09-20T09:08:06.477Z,89.8
2017-09-20T09:09:07.996Z,90.7
2017-09-20T09:10:09.668Z,89.8
2017-09-20T09:11:11.319Z,89.3
2017-09-20T09:12:13.013Z,89.4
2017-09-20T09:13:14.582Z,89.7
2017-09-20T09:14:16.480Z,89.2
2017-09-20T09:15:17.867Z,89.2
2017-09-20T09:16:20.620Z,89.7
2017-09-20T09:17:22.021Z,89.1
2017-09-20T09:18:23.631Z,90.2
2017-09-20T09:19:26.053Z,90.6
2017-09-20T09:20:27.739Z,91.1
2017-09-20T09:21:29.504Z,90.6
2017-09-20T09:22:31.072Z,90.6
2017-09-20T09:23:32.605Z,89.7
2017-09-20T09:24:34.320Z,89.4
2017-09-20T09:25:35.811Z,90.2
2017-09-20T09:26:37.459Z,89.2
2017-09-20T09:27:38.973Z,89.1
2017-09-20T09:28:40.624Z,89.2
2017-09-20T09:29:42.132Z,89.2
2017-09-20T09:30:43.675Z,89.4
2017-09-20T09:31:45.158Z,89.0
2017-09-20T09:32:46.780Z,89.0
2017-09-20T09:33:48.275Z,89.3
2017-09-20T09:34:49.893Z,89.3
2017-09-20T09:35:51.431Z,88.9
2017-09-20T09:36:53.095Z,88.5
2017-09-20T09:37:54.624Z,87.7
2017-09-20T09:38:56.303Z,88.0
2017-09-20T09:39:57.778Z,87.4
2017-09-20T09:40:59.299Z,86.7
2017-09-20T09:42:00.846Z,86.7
2017-09-20T09:43:02.420Z,86.4
2017-09-20T09:44:03.923Z,86.4
2017-09-20T09:45:05.475Z,85.5
2017-09-20T09:46:07.042Z,85.5
2017-09-20T09:47:08.573Z,85.3
2017-09-20T09:48:10.081Z,85.9
2017-09-20T09:49:11.633Z,85.9
2017-09-20T09:50:13.117Z,85.6
2017-09-20T09:51:14.736Z,86.2
2017-09-20T09:52:16.233Z,86.3
2017-09-20T09:53:17.803Z,85.9
2017-09-20T09:54:19.346Z,87.0
2017-09-20T09:55:20.914Z,86.9
2017-09-20T09:56:22.470Z,85.9
2017-09-20T09:57:23.972Z,86.6
2017-09-20T09:58:25.459Z,85.8
2017-09-20T09:59:27.079Z,83.1
2017-09-20T10:00:28.629Z,82.9
2017-09-20T10:01:30.433Z,81.4
2017-09-20T10:02:31.944Z,81.8
2017-09-20T10:03:33.564Z,82.5
2017-09-20T10:04:35.090Z,80.7
2017-09-20T10:05:36.591Z,79.7
2017-09-20T10:06:38.110Z,80.6
2017-09-20T10:07:39.719Z,80.6
2017-09-20T10:08:41.302Z,79.5
2017-09-20T10:09:43.003Z,78.2
2017-09-20T10:10:44.498Z,78.6
2017-09-20T10:11:46.153Z,77.8
2017-09-20T10:12:47.757Z,78.8
2017-09-20T10:13:49.583Z,77.5
2017-09-20T10:14:51.233Z,77.7
2017-09-20T10:15:52.813Z,77.4
2017-09-20T10:16:54.408Z,76.5
2017-09-20T10:17:55.912Z,74.8
2017-09-20T10:18:57.376Z,74.3
2017-09-20T10:19:58.992Z,73.7
2017-09-20T10:21:00.521Z,73.6
2017-09-20T10:22:02.117Z,74.0
2017-09-20T10:23:03.596Z,73.4
2017-09-20T10:24:05.187Z,73.4
2017-09-20T10:25:06.708Z,73.9
2017-09-20T10:26:08.284Z,72.6
2017-09-20T10:27:09.806Z,72.1
2017-09-20T10:28:11.372Z,73.1
2017-09-20T10:29:12.900Z,72.9
2017-09-20T10:30:14.451Z,72.9
2017-09-20T10:31:15.932Z,72.5
2017-09-20T10:32:17.540Z,72.2
2017-09-20T10:33:19.024Z,72.4
2017-09-20T10:34:20.666Z,73.1
2017-09-20T10:35:22.180Z,72.6
2017-09-20T10:36:23.756Z,74.3
2017-09-20T10:37:25.251Z,74.9
2017-09-20T10:38:27.824Z,76.1
2017-09-20T10:39:29.877Z,76.8
2017-09-20T10:40:31.414Z,77.0
2017-09-20T10:41:32.952Z,77.2
2017-09-20T10:42:34.638Z,77.6
2017-09-20T10:43:36.109Z,76.8
2017-09-20T10:44:38.172Z,76.3
2017-09-20T10:45:39.708Z,76.4
2017-09-20T10:46:41.454Z,76.5
2017-09-20T10:47:43.013Z,76.3
2017-09-20T10:48:44.614Z,74.3
2017-09-20T10:49:46.122Z,74.8
2017-09-20T10:50:47.706Z,74.9
2017-09-20T10:51:49.222Z,75.4
2017-09-20T10:52:51.027Z,76.8
2017-09-20T10:53:52.620Z,76.0
2017-09-20T10:54:54.208Z,76.9
2017-09-20T10:55:55.770Z,75.2
2017-09-20T10:56:57.351Z,75.4
2017-09-20T10:57:58.966Z,74.3
2017-09-20T10:59:00.554Z,74.2
2017-09-20T11:00:02.134Z,74.4
2017-09-20T11:01:03.664Z,74.0
2017-09-20T11:02:05.188Z,75.3
2017-09-20T11:03:06.888Z,75.7
2017-09-20T11:04:08.897Z,74.8
2017-09-20T11:05:10.480Z,74.5
2017-09-20T11:06:12.064Z,74.9
2017-09-20T11:07:13.693Z,72.1
2017-09-20T11:08:15.242Z,73.7
2017-09-20T11:09:16.751Z,74.0
2017-09-20T11:10:18.324Z,72.0
2017-09-20T11:11:20.416Z,71.8
2017-09-20T11:12:21.805Z,69.6
2017-09-20T11:13:23.392Z,70.3
2017-09-20T11:14:25.204Z,70.9
2017-09-20T11:15:26.944Z,70.1
2017-09-20T11:16:28.517Z,70.1
2017-09-20T11:17:30.296Z,70.5
2017-09-20T11:18:31.950Z,70.7
2017-09-20T11:19:33.542Z,70.7
2017-09-20T11:20:35.135Z,69.1
2017-09-20T11:21:37.108Z,70.3
2017-09-20T11:22:38.644Z,70.1
2017-09-20T11:23:40.271Z,69.4
2017-09-20T11:24:41.829Z,68.8
2017-09-20T11:25:43.438Z,69.0
2017-09-20T11:26:45.109Z,69.5
2017-09-20T11:27:46.754Z,67.9
2017-09-20T11:28:48.381Z,68.7
2017-09-20T11:29:50.181Z,68.8
2017-09-20T11:30:51.738Z,69.0
2017-09-20T11:31:53.340Z,69.6
2017-09-20T11:32:54.853Z,69.5
2017-09-20T11:33:56.539Z,70.9
2017-09-20T11:34:58.160Z,70.5
2017-09-20T11:35:59.849Z,70.0
2017-09-20T11:37:01.480Z,70.2
2017-09-20T11:38:03.184Z,70.3
2017-09-20T11:39:04.776Z,70.2
2017-09-20T11:40:06.384Z,70.0
2017-09-20T11:41:08.000Z,70.4
2017-09-20T11:42:09.608Z,70.3
2017-09-20T11:43:11.147Z,69.8
2017-09-20T11:44:12.751Z,70.6
2017-09-20T11:45:14.315Z,70.4
2017-09-20T11:46:15.936Z,70.0
2017-09-20T11:47:17.542Z,70.4
2017-09-20T11:48:19.134Z,70.6
2017-09-20T11:49:20.761Z,69.2
2017-09-20T11:50:22.487Z,69.5
2017-09-20T11:51:24.063Z,70.1
2017-09-20T11:52:25.645Z,71.6
2017-09-20T11:53:27.283Z,71.1
2017-09-20T11:54:29.035Z,70.5
2017-09-20T11:55:30.666Z,68.9
2017-09-20T11:56:32.226Z,68.8
2017-09-20T11:57:34.357Z,68.7
2017-09-20T11:58:36.995Z,69.4
2017-09-20T11:59:38.827Z,68.7
2017-09-20T12:00:40.697Z,68.9
2017-09-20T12:01:42.354Z,69.6
2017-09-20T12:02:44.129Z,70.3
2017-09-20T12:03:45.672Z,68.0
2017-09-20T12:04:47.613Z,67.5
2017-09-20T12:05:49.585Z,67.3
2017-09-20T12:06:51.248Z,67.7
2017-09-20T12:07:52.807Z,67.4
2017-09-20T12:08:54.978Z,67.0
2017-09-20T12:09:56.523Z,67.1
2017-09-20T12:10:58.241Z,67.2
2017-09-20T12:11:59.773Z,68.6
2017-09-20T12:13:01.347Z,68.8
2017-09-20T12:14:02.945Z,68.0
2017-09-20T12:15:04.519Z,68.6
2017-09-20T12:16:06.103Z,68.9
2017-09-20T12:17:08.848Z,69.2
2017-09-20T12:18:10.478Z,68.3
2017-09-20T12:19:12.174Z,67.9
2017-09-20T12:20:13.865Z,67.7
2017-09-20T12:21:16.488Z,70.3
2017-09-20T12:22:18.227Z,69.8
2017-09-20T12:23:20.084Z,69.0
2017-09-20T12:24:21.681Z,68.1
2017-09-20T12:25:23.302Z,67.5
2017-09-20T12:26:24.909Z,68.5
2017-09-20T12:27:26.714Z,68.5
2017-09-20T12:28:28.331Z,68.7
2017-09-20T12:29:30.024Z,68.3
2017-09-20T12:30:31.645Z,68.0
2017-09-20T12:31:33.499Z,68.7
2017-09-20T12:32:35.052Z,69.0
2017-09-20T12:33:36.600Z,69.8
2017-09-20T12:34:38.326Z,69.8
2017-09-20T12:35:39.914Z,68.4
2017-09-20T12:36:41.479Z,68.3
2017-09-20T12:37:43.106Z,69.4
2017-09-20T12:38:44.677Z,70.5
2017-09-20T12:39:46.365Z,69.6
2017-09-20T12:40:48.455Z,69.1
2017-09-20T12:41:50.887Z,69.4
2017-09-20T12:42:52.493Z,70.6
2017-09-20T12:43:54.067Z,70.9
2017-09-20T12:44:55.946Z,69.4
2017-09-20T12:45:57.585Z,70.2
2017-09-20T12:46:59.591Z,70.4
2017-09-20T12:48:01.293Z,70.1
2017-09-20T12:49:02.993Z,69.2
2017-09-20T12:50:04.742Z,67.8
2017-09-20T12:51:06.357Z,68.4
2017-09-20T12:52:08.077Z,68.1
2017-09-20T12:53:10.016Z,68.4
2017-09-20T12:54:11.803Z,69.1
2017-09-20T12:55:13.527Z,68.4
2017-09-20T12:56:15.178Z,69.1
2017-09-20T12:57:16.752Z,69.3
2017-09-20T12:58:19.642Z,69.1
2017-09-20T12:59:21.386Z,68.4
2017-09-20T13:00:23.073Z,68.1
2017-09-20T13:01:24.948Z,67.3
2017-09-20T13:02:26.622Z,66.3
2017-09-20T13:03:28.224Z,67.0
2017-09-20T13:04:29.834Z,66.4
2017-09-20T13:05:31.485Z,64.4
2017-09-20T13:06:33.177Z,65.2
2017-09-20T13:07:34.846Z,64.9
2017-09-20T13:08:36.773Z,65.0
2017-09-20T13:09:38.320Z,65.6
2017-09-20T13:10:40.710Z,66.0
2017-09-20T13:11:44.785Z,67.6
2017-09-20T13:12:47.126Z,67.7
2017-09-20T13:13:48.694Z,68.2
2017-09-20T13:14:50.811Z,68.5
2017-09-20T13:15:52.432Z,68.6
2017-09-20T13:16:54.886Z,69.2
2017-09-20T13:17:56.544Z,68.9
2017-09-20T13:18:58.697Z,69.1
2017-09-20T13:20:00.481Z,69.1
2017-09-20T13:21:02.170Z,68.6
2017-09-20T13:22:04.009Z,68.1
2017-09-20T13:23:05.757Z,67.9
2017-09-20T13:24:07.324Z,66.7
2017-09-20T13:25:09.044Z,66.0
2017-09-20T13:26:11.420Z,67.3
2017-09-20T13:27:13.459Z,67.7
2017-09-20T13:28:15.139Z,67.3
2017-09-20T13:29:17.886Z,66.9
2017-09-20T13:30:19.527Z,67.3
2017-09-20T13:31:21.485Z,68.6
2017-09-20T13:32:23.066Z,69.0